This is the latest recevied weather packets stored in our database for station/object SP9EPI-13. If no packets are shown the sender has not sent any weather packets the latest 10 day(s).
| Time | Temp. | Humidity | Pressure | Rain* | Wind** | Luminosity | Snow |
|---|---|---|---|---|---|---|---|
| 1777573200 | 8.89° C | 33% | 1022.6 hPa | - | - | - | - |
| 1777572600 | 10° C | 32% | 1022.6 hPa | - | - | - | - |
| 1777572000 | 10° C | 31% | 1022.6 hPa | - | - | - | - |
| 1777571400 | 11.11° C | 30% | 1022.6 hPa | - | - | - | - |
| 1777570800 | 11.11° C | 28% | 1022.6 hPa | - | - | - | - |
| 1777570200 | 12.22° C | 29% | 1022.3 hPa | - | - | - | - |
| 1777569600 | 12.22° C | 28% | 1022.3 hPa | - | - | - | - |
| 1777569001 | 12.78° C | 28% | 1022.3 hPa | - | - | - | - |
| 1777568400 | 12.78° C | 30% | 1022.3 hPa | - | - | - | - |
| 1777567800 | 12.22° C | 29% | 1022.3 hPa | - | - | - | - |
| 1777567200 | 12.22° C | 28% | 1022.3 hPa | - | - | - | - |
| 1777566600 | 12.78° C | 28% | 1022.3 hPa | - | - | - | - |
| 1777566000 | 12.78° C | 28% | 1022.3 hPa | - | - | - | - |
| 1777565400 | 13.89° C | 27% | 1022.3 hPa | - | - | - | - |
| 1777564801 | 13.89° C | 28% | 1022.3 hPa | - | - | - | - |
| 1777564201 | 13.89° C | 28% | 1022.6 hPa | - | - | - | - |
| 1777563600 | 13.89° C | 27% | 1022.6 hPa | - | - | - | - |
| 1777563000 | 13.89° C | 27% | 1022.6 hPa | - | - | - | - |
| 1777562400 | 13.89° C | 26% | 1022.6 hPa | - | - | - | - |
| 1777561801 | 13.89° C | 26% | 1022.6 hPa | - | - | - | - |
| 1777561200 | 0° C | 100% | 0 hPa | - | - | - | - |
| 1777560601 | 13.89° C | 25% | 1022.6 hPa | - | - | - | - |
| 1777560000 | 13.89° C | 27% | 1022.6 hPa | - | - | - | - |
| 1777559400 | 13.89° C | 29% | 1022.6 hPa | - | - | - | - |
| 1777558800 | 13.89° C | 29% | 1022.6 hPa | - | - | - | - |
* Rain since midnight (hover to see other rain measurements)
** Current wind speed in m/s (hover to see current wind gust speed)